createdAt,value
2023-03-29T00:00:08.766Z,6.00
2023-03-29T00:02:35.702Z,6.30
2023-03-29T00:05:04.676Z,6.67
2023-03-29T00:07:35.634Z,7.10
2023-03-29T00:10:05.088Z,6.70
2023-03-29T00:12:32.776Z,6.30
2023-03-29T00:15:00.168Z,6.23
2023-03-29T00:17:27.339Z,6.90
2023-03-29T00:19:54.361Z,6.23
2023-03-29T00:22:22.381Z,6.67
2023-03-29T00:24:49.726Z,7.70
2023-03-29T00:27:16.909Z,6.23
2023-03-29T00:29:43.924Z,7.93
2023-03-29T00:32:10.902Z,7.50
2023-03-29T00:34:37.896Z,7.70
2023-03-29T00:37:08.981Z,7.53
2023-03-29T00:39:36.981Z,8.20
2023-03-29T00:42:04.121Z,9.33
2023-03-29T00:45:14.101Z,8.63
2023-03-29T00:48:00.139Z,7.73
2023-03-29T00:50:36.583Z,8.00
2023-03-29T00:53:33.736Z,6.57
2023-03-29T00:56:24.713Z,7.50
2023-03-29T00:59:35.692Z,6.30
2023-03-29T01:02:07.999Z,7.60
2023-03-29T01:04:50.497Z,6.87
2023-03-29T01:07:50.519Z,8.63
2023-03-29T01:10:51.965Z,7.07
2023-03-29T01:13:27.365Z,7.20
2023-03-29T01:15:57.111Z,6.53
2023-03-29T01:18:24.644Z,7.23
2023-03-29T01:21:12.675Z,7.03
2023-03-29T01:24:15.798Z,7.47
2023-03-29T01:27:12.657Z,6.57
2023-03-29T01:29:50.365Z,7.50
2023-03-29T01:32:50.691Z,7.10
2023-03-29T01:35:46.129Z,7.70
2023-03-29T01:38:18.543Z,6.40
2023-03-29T01:40:45.651Z,7.57
2023-03-29T01:43:55.558Z,5.83
2023-03-29T01:46:43.810Z,6.90
2023-03-29T01:49:37.881Z,6.87
2023-03-29T01:52:17.389Z,7.43
2023-03-29T01:55:06.252Z,6.23
2023-03-29T01:57:36.175Z,7.67
2023-03-29T02:00:10.067Z,7.00
2023-03-29T02:02:42.677Z,6.10
2023-03-29T02:05:12.828Z,6.90
2023-03-29T02:07:41.161Z,7.23
2023-03-29T02:10:11.474Z,7.50
2023-03-29T02:12:38.847Z,6.60
2023-03-29T02:15:12.829Z,7.37
2023-03-29T02:17:39.801Z,8.00
2023-03-29T02:20:24.698Z,8.00
2023-03-29T02:23:18.787Z,7.67
2023-03-29T02:25:46.743Z,8.57
2023-03-29T02:28:14.454Z,7.53
2023-03-29T02:30:48.593Z,7.93
2023-03-29T02:33:26.988Z,7.83
2023-03-29T02:36:03.779Z,8.10
2023-03-29T02:38:32.979Z,7.50
2023-03-29T02:41:01.601Z,7.80
2023-03-29T02:43:30.246Z,6.43
2023-03-29T02:45:57.561Z,7.27
2023-03-29T02:48:28.678Z,6.80
2023-03-29T02:51:01.425Z,6.97
2023-03-29T02:53:39.630Z,6.57
2023-03-29T02:56:08.542Z,7.57
2023-03-29T02:58:36.787Z,7.57
2023-03-29T03:01:07.042Z,7.37
2023-03-29T03:03:35.969Z,7.90
2023-03-29T03:06:03.206Z,7.20
2023-03-29T03:08:30.352Z,6.70
2023-03-29T03:10:57.404Z,7.27
2023-03-29T03:13:24.301Z,6.47
2023-03-29T03:15:51.443Z,7.80
2023-03-29T03:18:18.459Z,7.10
2023-03-29T03:20:59.448Z,7.73
2023-03-29T03:23:26.868Z,8.80
2023-03-29T03:25:54.018Z,7.47
2023-03-29T03:28:22.518Z,8.83
2023-03-29T03:30:49.939Z,8.03
2023-03-29T03:33:17.070Z,7.13
2023-03-29T03:35:46.584Z,6.93
2023-03-29T03:38:14.370Z,7.10
2023-03-29T03:40:41.724Z,6.97
2023-03-29T03:43:08.943Z,5.87
2023-03-29T03:45:36.109Z,7.73
2023-03-29T03:48:03.142Z,7.00
2023-03-29T03:50:30.256Z,7.00
2023-03-29T03:52:57.309Z,8.17
2023-03-29T03:55:24.509Z,6.53
2023-03-29T03:57:52.314Z,6.10
2023-03-29T04:00:19.516Z,7.63
2023-03-29T04:02:48.430Z,6.00
2023-03-29T04:05:17.414Z,7.07
2023-03-29T04:07:44.543Z,6.50
2023-03-29T04:10:11.882Z,6.13
2023-03-29T04:12:40.117Z,8.60
2023-03-29T04:15:08.664Z,7.00
2023-03-29T04:17:36.078Z,7.17
2023-03-29T04:20:10.247Z,7.10
2023-03-29T04:22:37.931Z,7.03
2023-03-29T04:25:08.301Z,6.07
2023-03-29T04:27:35.325Z,5.90
2023-03-29T04:30:02.487Z,5.70
2023-03-29T04:32:29.533Z,5.57
2023-03-29T04:34:56.616Z,6.10
2023-03-29T04:37:23.651Z,7.53
2023-03-29T04:39:52.724Z,7.50
2023-03-29T04:42:19.765Z,8.07
2023-03-29T04:44:46.887Z,7.20
2023-03-29T04:47:13.885Z,8.00
2023-03-29T04:49:41.519Z,8.73
2023-03-29T04:52:09.307Z,7.90
2023-03-29T04:54:37.456Z,8.17
2023-03-29T04:57:06.347Z,7.10
2023-03-29T04:59:33.411Z,8.10
2023-03-29T05:02:03.281Z,9.00
2023-03-29T05:04:31.394Z,8.80
2023-03-29T05:06:58.701Z,8.83
2023-03-29T05:09:26.047Z,8.90
2023-03-29T05:11:53.176Z,9.60
2023-03-29T05:14:20.359Z,8.37
2023-03-29T05:16:47.441Z,8.87
2023-03-29T05:19:14.494Z,8.73
2023-03-29T05:21:43.709Z,9.50
2023-03-29T05:24:12.430Z,8.17
2023-03-29T05:26:40.212Z,9.50
2023-03-29T05:29:09.200Z,8.43
2023-03-29T05:31:39.669Z,8.90
2023-03-29T05:34:07.342Z,9.70
2023-03-29T05:36:34.542Z,9.43
2023-03-29T05:39:02.108Z,9.43
2023-03-29T05:41:29.606Z,7.97
2023-03-29T05:43:56.862Z,9.83
2023-03-29T05:46:23.896Z,11.27
2023-03-29T05:48:50.804Z,11.63
2023-03-29T05:51:19.423Z,10.97
2023-03-29T05:53:46.879Z,10.43
2023-03-29T05:56:16.448Z,10.57
2023-03-29T05:58:43.564Z,10.83
2023-03-29T06:01:14.910Z,11.87
2023-03-29T06:03:42.459Z,12.87
2023-03-29T06:06:10.910Z,12.13
2023-03-29T06:08:37.915Z,11.80
2023-03-29T06:11:09.116Z,12.43
2023-03-29T06:13:38.048Z,12.23
2023-03-29T06:16:06.544Z,11.60
2023-03-29T06:18:34.086Z,12.90
2023-03-29T06:21:05.083Z,10.50
2023-03-29T06:23:32.459Z,13.23
2023-03-29T06:26:00.399Z,11.33
2023-03-29T06:28:27.856Z,11.90
2023-03-29T06:30:56.617Z,11.07
2023-03-29T06:33:25.492Z,18.57
2023-03-29T06:35:53.039Z,12.37
2023-03-29T06:38:21.180Z,11.23
2023-03-29T06:40:48.594Z,11.70
2023-03-29T06:43:15.629Z,12.27
2023-03-29T06:45:42.871Z,11.03
2023-03-29T06:48:10.008Z,11.60
2023-03-29T06:50:37.877Z,12.10
2023-03-29T06:53:05.135Z,10.67
2023-03-29T06:55:32.339Z,12.63
2023-03-29T06:58:02.249Z,12.67
2023-03-29T07:00:31.017Z,10.90
2023-03-29T07:03:00.913Z,12.00
2023-03-29T07:05:29.729Z,10.43
2023-03-29T07:07:57.225Z,10.70
2023-03-29T07:10:32.803Z,11.33
2023-03-29T07:13:01.362Z,10.27
2023-03-29T07:15:29.581Z,10.73
2023-03-29T07:17:57.669Z,11.17
2023-03-29T07:20:27.285Z,10.30
2023-03-29T07:22:54.620Z,10.80
2023-03-29T07:25:23.719Z,12.37
2023-03-29T07:27:54.784Z,11.97
2023-03-29T07:30:31.009Z,12.97
2023-03-29T07:32:59.289Z,12.80
2023-03-29T07:35:27.553Z,12.17
2023-03-29T07:37:58.622Z,12.63
2023-03-29T07:40:26.588Z,11.93
2023-03-29T07:42:56.976Z,12.27
2023-03-29T07:45:28.863Z,12.23
2023-03-29T07:47:59.087Z,13.83
2023-03-29T07:50:27.711Z,21.53
2023-03-29T07:52:55.270Z,14.47
2023-03-29T07:55:22.325Z,12.97
2023-03-29T07:57:50.486Z,14.00
2023-03-29T08:00:20.267Z,15.67
2023-03-29T08:02:50.879Z,17.53
2023-03-29T08:05:29.200Z,17.10
2023-03-29T08:08:06.794Z,18.27
2023-03-29T08:10:34.569Z,18.73
2023-03-29T08:13:07.535Z,20.20
2023-03-29T08:15:39.637Z,18.80
2023-03-29T08:18:08.155Z,18.53
2023-03-29T08:20:35.251Z,19.33
2023-03-29T08:23:02.685Z,17.50
2023-03-29T08:25:30.574Z,19.67
2023-03-29T08:27:58.080Z,18.40
2023-03-29T08:30:25.891Z,19.50
2023-03-29T08:32:55.404Z,18.57
2023-03-29T08:35:23.218Z,17.60
2023-03-29T08:37:50.144Z,16.87
2023-03-29T08:40:22.935Z,16.77
2023-03-29T08:42:58.447Z,16.67
2023-03-29T08:45:34.138Z,16.10
2023-03-29T08:48:45.033Z,15.37
2023-03-29T08:51:39.174Z,15.47
2023-03-29T08:54:25.038Z,15.17
2023-03-29T08:56:56.265Z,14.97
2023-03-29T08:59:32.194Z,13.03
2023-03-29T09:02:03.073Z,14.83
2023-03-29T09:04:35.824Z,16.33
2023-03-29T09:07:04.286Z,15.10
2023-03-29T09:09:35.949Z,14.57
2023-03-29T09:12:21.005Z,13.27
2023-03-29T09:15:02.859Z,13.03
2023-03-29T09:18:02.956Z,16.03
2023-03-29T09:21:04.465Z,13.23
2023-03-29T09:23:49.749Z,15.13
2023-03-29T09:26:50.582Z,15.00
2023-03-29T09:29:52.604Z,13.80
2023-03-29T09:32:32.430Z,12.47
2023-03-29T09:35:18.657Z,11.90
2023-03-29T09:37:51.417Z,11.30
2023-03-29T09:40:26.870Z,11.20
2023-03-29T09:42:56.254Z,11.17
2023-03-29T09:45:23.909Z,13.10
2023-03-29T09:48:12.779Z,15.03
2023-03-29T09:50:47.002Z,11.70
2023-03-29T09:53:19.106Z,12.05
2023-03-29T09:55:50.740Z,9.90
2023-03-29T09:58:23.400Z,10.37
2023-03-29T10:00:51.231Z,9.40
2023-03-29T10:03:29.889Z,10.13
2023-03-29T10:06:01.961Z,9.40
2023-03-29T10:08:37.014Z,9.97
2023-03-29T10:11:33.176Z,9.50
2023-03-29T10:14:16.990Z,8.77
2023-03-29T10:16:48.999Z,8.80
2023-03-29T10:19:27.410Z,10.37
2023-03-29T10:21:56.550Z,11.37
2023-03-29T10:24:26.770Z,11.77
2023-03-29T10:26:59.035Z,10.87
2023-03-29T10:29:27.847Z,11.20
2023-03-29T10:31:55.592Z,12.20
2023-03-29T10:34:26.201Z,12.30
2023-03-29T10:37:02.240Z,10.77
2023-03-29T10:39:34.696Z,11.33
2023-03-29T10:42:04.522Z,10.67
2023-03-29T10:44:35.605Z,9.90
2023-03-29T10:47:34.573Z,11.00
2023-03-29T10:50:06.363Z,10.13
2023-03-29T10:52:33.701Z,9.30
2023-03-29T10:55:00.905Z,9.17
2023-03-29T10:57:39.719Z,9.30
2023-03-29T11:00:10.328Z,9.60
2023-03-29T11:03:43.696Z,7.47
2023-03-29T11:06:16.856Z,7.07
2023-03-29T11:08:52.820Z,8.13
2023-03-29T11:11:54.177Z,7.60
2023-03-29T11:14:31.046Z,6.40
2023-03-29T11:17:13.008Z,6.13
2023-03-29T11:19:45.878Z,7.60
2023-03-29T11:22:40.625Z,7.00
2023-03-29T11:25:34.302Z,5.87
2023-03-29T11:28:32.913Z,6.20
2023-03-29T11:31:39.430Z,7.47
2023-03-29T11:34:15.832Z,5.53
2023-03-29T11:37:08.934Z,5.90
2023-03-29T11:40:23.270Z,5.53
2023-03-29T11:42:56.348Z,5.30
2023-03-29T11:45:43.903Z,7.27
2023-03-29T11:48:21.464Z,6.20
2023-03-29T11:51:06.855Z,6.10
2023-03-29T11:54:01.957Z,6.70
2023-03-29T11:56:42.739Z,5.93
2023-03-29T11:59:33.328Z,6.47
2023-03-29T12:02:20.250Z,6.53
2023-03-29T12:04:53.198Z,6.03
2023-03-29T12:07:41.910Z,5.90
2023-03-29T12:10:23.993Z,5.70
2023-03-29T12:13:06.616Z,5.67
2023-03-29T12:15:43.224Z,4.77
2023-03-29T12:18:45.810Z,5.80
2023-03-29T12:21:27.298Z,5.80
2023-03-29T12:23:54.666Z,7.27
2023-03-29T12:27:05.129Z,5.53
2023-03-29T12:30:13.327Z,5.30
2023-03-29T12:32:52.039Z,5.70
2023-03-29T12:36:10.977Z,6.67
2023-03-29T12:38:38.652Z,5.60
2023-03-29T12:41:20.202Z,5.97
2023-03-29T12:43:48.478Z,6.80
2023-03-29T12:46:27.648Z,6.50
2023-03-29T12:49:41.791Z,6.40
2023-03-29T12:52:36.519Z,5.53
2023-03-29T12:55:23.802Z,5.83
2023-03-29T12:58:26.055Z,6.17
2023-03-29T13:01:23.658Z,6.10
2023-03-29T13:03:56.189Z,6.20
2023-03-29T13:06:56.391Z,6.40
2023-03-29T13:09:32.457Z,6.00
2023-03-29T13:12:11.033Z,5.67
2023-03-29T13:14:43.679Z,6.83
2023-03-29T13:18:04.479Z,6.00
2023-03-29T13:20:46.241Z,6.37
2023-03-29T13:23:50.499Z,5.50
2023-03-29T13:26:27.286Z,5.30
2023-03-29T13:29:24.614Z,6.37
2023-03-29T13:32:03.559Z,5.63
2023-03-29T13:35:01.801Z,5.43
2023-03-29T13:38:15.648Z,5.93
2023-03-29T13:40:59.223Z,6.03
2023-03-29T13:43:48.487Z,6.00
2023-03-29T13:46:37.580Z,6.50
2023-03-29T13:49:24.030Z,6.40
2023-03-29T13:51:53.992Z,6.00
2023-03-29T13:54:33.315Z,6.90
2023-03-29T13:57:09.064Z,6.50
2023-03-29T13:59:54.439Z,6.17
2023-03-29T14:02:51.878Z,6.10
2023-03-29T14:05:28.905Z,6.93
2023-03-29T14:07:56.358Z,6.57
2023-03-29T14:10:31.554Z,6.40
2023-03-29T14:13:04.437Z,6.50
2023-03-29T14:15:45.920Z,6.00
2023-03-29T14:18:17.264Z,7.97
2023-03-29T14:20:49.356Z,6.63
2023-03-29T14:23:23.006Z,6.20
2023-03-29T14:25:50.686Z,5.60
2023-03-29T14:28:28.087Z,6.77
2023-03-29T14:30:56.612Z,6.70
2023-03-29T14:33:34.845Z,6.30
2023-03-29T14:36:04.467Z,5.50
2023-03-29T14:38:32.829Z,5.40
2023-03-29T14:41:01.878Z,5.93
2023-03-29T14:43:32.165Z,6.57
2023-03-29T14:46:08.688Z,7.00
2023-03-29T14:48:36.670Z,5.73
2023-03-29T14:51:05.152Z,6.57
2023-03-29T14:53:34.463Z,6.13
2023-03-29T14:56:02.323Z,6.10
2023-03-29T14:58:34.051Z,6.50
2023-03-29T15:01:17.348Z,7.17
2023-03-29T15:03:49.740Z,7.27
2023-03-29T15:06:17.504Z,6.67
2023-03-29T15:09:01.521Z,7.40
2023-03-29T15:11:33.058Z,7.10
2023-03-29T15:14:16.675Z,6.67
2023-03-29T15:16:47.803Z,6.20
2023-03-29T15:19:22.040Z,6.60
2023-03-29T15:21:51.724Z,7.23
2023-03-29T15:24:29.487Z,6.07
2023-03-29T15:27:11.505Z,7.20
2023-03-29T15:29:42.760Z,7.23
2023-03-29T15:32:24.254Z,6.93
2023-03-29T15:35:08.168Z,5.47
2023-03-29T15:37:36.858Z,7.13
2023-03-29T15:40:09.929Z,6.83
2023-03-29T15:42:37.058Z,7.00
2023-03-29T15:45:06.607Z,6.57
2023-03-29T15:47:33.601Z,6.40
2023-03-29T15:50:00.760Z,6.50
2023-03-29T15:52:28.144Z,6.73
2023-03-29T15:54:55.094Z,7.07
2023-03-29T15:57:22.240Z,7.43
2023-03-29T15:59:49.575Z,5.90
2023-03-29T16:02:19.914Z,7.43
2023-03-29T16:04:46.871Z,7.27
2023-03-29T16:07:17.382Z,7.00
2023-03-29T16:09:46.406Z,7.10
2023-03-29T16:12:13.705Z,6.57
2023-03-29T16:14:42.961Z,7.13
2023-03-29T16:17:10.265Z,7.90
2023-03-29T16:19:37.832Z,6.50
2023-03-29T16:22:07.743Z,7.27
2023-03-29T16:24:36.367Z,6.50
2023-03-29T16:27:04.265Z,7.57
2023-03-29T16:29:31.991Z,7.30
2023-03-29T16:31:59.743Z,7.50
2023-03-29T16:34:26.930Z,7.83
2023-03-29T16:36:54.096Z,8.33
2023-03-29T16:39:21.707Z,7.90
2023-03-29T16:41:50.463Z,7.70
2023-03-29T16:44:23.761Z,9.73
2023-03-29T16:46:54.477Z,10.43
2023-03-29T16:49:21.781Z,10.60
2023-03-29T16:51:49.069Z,8.13
2023-03-29T16:54:20.283Z,8.80
2023-03-29T16:56:47.509Z,8.47
2023-03-29T16:59:15.610Z,8.90
2023-03-29T17:01:42.995Z,8.30
2023-03-29T17:04:10.129Z,8.00
2023-03-29T17:06:37.078Z,8.40
2023-03-29T17:09:05.253Z,8.93
2023-03-29T17:11:32.816Z,11.47
2023-03-29T17:14:00.322Z,10.77
2023-03-29T17:16:29.357Z,10.63
2023-03-29T17:19:00.599Z,11.10
2023-03-29T17:21:29.412Z,8.83
2023-03-29T17:23:56.575Z,9.87
2023-03-29T17:26:24.025Z,8.53
2023-03-29T17:28:51.079Z,7.87
2023-03-29T17:31:19.607Z,8.80
2023-03-29T17:33:47.671Z,7.67
2023-03-29T17:36:14.823Z,9.57
2023-03-29T17:38:43.308Z,8.97
2023-03-29T17:41:11.317Z,8.80
2023-03-29T17:43:38.288Z,8.70
2023-03-29T17:46:06.014Z,8.87
2023-03-29T17:48:33.460Z,8.70
2023-03-29T17:51:00.666Z,8.87
2023-03-29T17:53:27.616Z,8.37
2023-03-29T17:55:55.047Z,8.30
2023-03-29T17:58:22.088Z,9.50
2023-03-29T18:00:49.077Z,8.30
2023-03-29T18:03:16.160Z,9.30
2023-03-29T18:05:43.339Z,8.03
2023-03-29T18:08:10.421Z,8.20
2023-03-29T18:10:37.554Z,9.10
2023-03-29T18:13:04.777Z,8.83
2023-03-29T18:15:32.110Z,9.67
2023-03-29T18:17:59.158Z,10.00
2023-03-29T18:20:26.244Z,9.70
2023-03-29T18:22:53.325Z,10.40
2023-03-29T18:25:20.507Z,11.00
2023-03-29T18:27:47.483Z,11.27
2023-03-29T18:30:16.868Z,8.90
2023-03-29T18:32:44.180Z,10.03
2023-03-29T18:35:12.227Z,9.50
2023-03-29T18:37:39.408Z,9.70
2023-03-29T18:40:10.476Z,9.47
2023-03-29T18:42:37.822Z,9.47
2023-03-29T18:45:05.896Z,8.93
2023-03-29T18:47:33.497Z,10.00
2023-03-29T18:50:01.270Z,9.83
2023-03-29T18:52:28.397Z,9.30
2023-03-29T18:54:55.373Z,9.20
2023-03-29T18:57:22.357Z,9.00
2023-03-29T18:59:49.424Z,9.80
2023-03-29T19:02:16.439Z,9.90
2023-03-29T19:04:43.670Z,10.70
2023-03-29T19:07:10.689Z,9.30
2023-03-29T19:09:37.778Z,10.23
2023-03-29T19:12:04.899Z,11.50
2023-03-29T19:14:31.861Z,9.80
2023-03-29T19:16:58.843Z,10.73
2023-03-29T19:19:26.525Z,9.63
2023-03-29T19:21:53.569Z,11.60
2023-03-29T19:24:20.996Z,12.40
2023-03-29T19:26:50.180Z,15.67
2023-03-29T19:29:17.121Z,14.27
2023-03-29T19:31:44.281Z,15.23
2023-03-29T19:34:11.774Z,16.83
2023-03-29T19:36:39.331Z,16.23
2023-03-29T19:39:07.693Z,17.33
2023-03-29T19:41:34.761Z,14.77
2023-03-29T19:44:01.933Z,15.00
2023-03-29T19:46:29.868Z,14.80
2023-03-29T19:48:59.445Z,14.87
2023-03-29T19:51:27.906Z,14.37
2023-03-29T19:53:56.171Z,13.90
2023-03-29T19:56:26.029Z,14.67
2023-03-29T19:58:53.591Z,13.83
2023-03-29T20:01:21.345Z,12.90
2023-03-29T20:03:51.517Z,13.87
2023-03-29T20:06:22.477Z,14.00
2023-03-29T20:08:55.382Z,13.70
2023-03-29T20:11:24.658Z,14.37
2023-03-29T20:13:51.810Z,13.07
2023-03-29T20:16:19.712Z,13.50
2023-03-29T20:18:46.848Z,13.70
2023-03-29T20:21:18.807Z,13.80
2023-03-29T20:23:53.424Z,13.67
2023-03-29T20:26:21.749Z,14.13
2023-03-29T20:28:48.957Z,13.97
2023-03-29T20:31:16.004Z,15.43
2023-03-29T20:33:44.668Z,13.50
2023-03-29T20:36:12.863Z,14.77
2023-03-29T20:38:39.906Z,14.73
2023-03-29T20:41:09.524Z,15.40
2023-03-29T20:43:41.148Z,18.33
2023-03-29T20:46:23.018Z,16.70
2023-03-29T20:48:56.221Z,15.87
2023-03-29T20:51:34.093Z,18.47
2023-03-29T20:54:05.014Z,17.73
2023-03-29T20:56:37.440Z,17.43
2023-03-29T20:59:06.016Z,17.27
2023-03-29T21:01:40.724Z,17.17
2023-03-29T21:04:08.856Z,17.10
2023-03-29T21:06:36.340Z,17.57
2023-03-29T21:09:04.913Z,19.10
2023-03-29T21:11:32.164Z,17.43
2023-03-29T21:13:59.272Z,17.63
2023-03-29T21:16:29.134Z,17.17
2023-03-29T21:18:56.551Z,18.47
2023-03-29T21:21:23.670Z,18.37
2023-03-29T21:23:50.709Z,19.27
2023-03-29T21:26:17.758Z,20.27
2023-03-29T21:28:44.726Z,21.43
2023-03-29T21:31:11.855Z,17.50
2023-03-29T21:33:38.836Z,18.23
2023-03-29T21:36:06.351Z,20.83
2023-03-29T21:38:33.401Z,18.00
2023-03-29T21:41:00.952Z,18.57
2023-03-29T21:43:28.195Z,19.07
2023-03-29T21:45:55.301Z,17.50
2023-03-29T21:48:22.538Z,16.90
2023-03-29T21:50:51.252Z,18.40
2023-03-29T21:53:18.797Z,16.97
2023-03-29T21:55:49.468Z,19.27
2023-03-29T21:58:16.988Z,17.23
2023-03-29T22:00:46.156Z,17.03
2023-03-29T22:03:14.267Z,16.33
2023-03-29T22:05:42.037Z,18.83
2023-03-29T22:08:10.907Z,19.50
2023-03-29T22:10:41.679Z,18.97
2023-03-29T22:13:09.311Z,18.00
2023-03-29T22:15:36.358Z,18.13
2023-03-29T22:18:04.163Z,21.30
2023-03-29T22:20:35.900Z,19.87
2023-03-29T22:23:03.477Z,20.17
2023-03-29T22:25:30.866Z,18.43
2023-03-29T22:27:58.374Z,20.90
2023-03-29T22:30:25.280Z,20.47
2023-03-29T22:32:52.318Z,19.93
2023-03-29T22:35:19.394Z,20.40
2023-03-29T22:37:46.409Z,19.43
2023-03-29T22:40:13.734Z,20.00
2023-03-29T22:42:40.758Z,20.97
2023-03-29T22:45:09.151Z,19.40
2023-03-29T22:47:36.240Z,19.50
2023-03-29T22:50:03.482Z,19.53
2023-03-29T22:52:30.432Z,22.10
2023-03-29T22:54:57.488Z,19.67
2023-03-29T22:57:24.573Z,20.13
2023-03-29T22:59:51.639Z,19.57
2023-03-29T23:02:18.601Z,20.60
2023-03-29T23:04:46.008Z,22.13
2023-03-29T23:07:13.063Z,19.40
2023-03-29T23:09:40.026Z,21.03
2023-03-29T23:12:07.748Z,20.87
2023-03-29T23:14:35.763Z,22.00
2023-03-29T23:17:02.757Z,21.17
2023-03-29T23:19:29.662Z,21.40
2023-03-29T23:21:56.691Z,22.57
2023-03-29T23:24:23.626Z,19.73
2023-03-29T23:26:50.638Z,21.40
2023-03-29T23:29:17.600Z,22.90
2023-03-29T23:31:45.512Z,21.30
2023-03-29T23:34:13.733Z,19.67
2023-03-29T23:36:40.804Z,22.23
2023-03-29T23:39:08.282Z,21.57
2023-03-29T23:41:36.342Z,21.30
2023-03-29T23:44:03.755Z,20.30
2023-03-29T23:46:31.707Z,22.33
2023-03-29T23:48:58.740Z,22.60
2023-03-29T23:51:28.735Z,20.70
2023-03-29T23:53:57.232Z,22.27
2023-03-29T23:56:24.440Z,21.47
2023-03-29T23:58:52.152Z,20.33
